createdAt,value
2018-09-14T00:01:47.891Z,2.77
2018-09-14T00:04:15.966Z,4.57
2018-09-14T00:06:44.065Z,3.20
2018-09-14T00:09:13.178Z,3.30
2018-09-14T00:11:41.490Z,3.40
2018-09-14T00:14:09.893Z,4.43
2018-09-14T00:16:38.182Z,4.53
2018-09-14T00:19:06.386Z,6.53
2018-09-14T00:21:34.484Z,6.90
2018-09-14T00:24:02.497Z,4.50
2018-09-14T00:26:30.894Z,3.60
2018-09-14T00:28:58.990Z,10.70
2018-09-14T00:31:26.977Z,4.50
2018-09-14T00:33:55.006Z,5.97
2018-09-14T00:36:23.072Z,4.50
2018-09-14T00:38:51.092Z,5.53
2018-09-14T00:41:19.261Z,3.63
2018-09-14T00:43:47.290Z,3.03
2018-09-14T00:46:15.279Z,3.27
2018-09-14T00:48:43.349Z,2.80
2018-09-14T00:51:11.350Z,2.70
2018-09-14T00:53:39.377Z,2.40
2018-09-14T00:56:07.365Z,3.93
2018-09-14T00:58:35.430Z,4.40
2018-09-14T01:01:03.454Z,3.97
2018-09-14T01:03:31.489Z,3.37
2018-09-14T01:05:59.522Z,2.10
2018-09-14T01:08:27.828Z,4.30
2018-09-14T01:10:55.818Z,2.60
2018-09-14T01:13:24.099Z,3.23
2018-09-14T01:15:52.129Z,4.60
2018-09-14T01:18:20.205Z,3.60
2018-09-14T01:20:48.193Z,3.87
2018-09-14T01:23:16.222Z,4.33
2018-09-14T01:25:44.214Z,4.27
2018-09-14T01:28:12.250Z,3.23
2018-09-14T01:30:40.277Z,7.73
2018-09-14T01:33:08.561Z,7.30
2018-09-14T01:35:42.169Z,5.77
2018-09-14T01:38:10.189Z,3.70
2018-09-14T01:40:38.185Z,2.27
2018-09-14T01:43:06.197Z,3.60
2018-09-14T01:45:34.293Z,2.73
2018-09-14T01:48:02.317Z,4.20
2018-09-14T01:50:30.362Z,5.20
2018-09-14T01:52:58.378Z,3.27
2018-09-14T01:55:26.469Z,2.77
2018-09-14T01:57:54.481Z,3.80
2018-09-14T02:00:22.510Z,3.23
2018-09-14T02:02:50.541Z,2.83
2018-09-14T02:05:18.566Z,8.53
2018-09-14T02:07:46.648Z,5.27
2018-09-14T02:10:20.270Z,2.93
2018-09-14T02:12:48.370Z,4.77
2018-09-14T02:15:16.479Z,2.47
2018-09-14T02:17:44.461Z,4.93
2018-09-14T02:20:12.565Z,2.80
2018-09-14T02:22:40.561Z,6.83
2018-09-14T02:25:08.753Z,4.43
2018-09-14T02:27:36.788Z,6.20
2018-09-14T02:30:05.018Z,4.60
2018-09-14T02:32:33.213Z,4.73
2018-09-14T02:35:01.202Z,4.47
2018-09-14T02:37:29.242Z,3.57
2018-09-14T02:39:57.338Z,6.60
2018-09-14T02:42:25.368Z,4.20
2018-09-14T02:44:53.486Z,4.70
2018-09-14T02:47:21.626Z,2.33
2018-09-14T02:49:49.935Z,5.10
2018-09-14T02:52:17.926Z,5.70
2018-09-14T02:54:45.981Z,6.07
2018-09-14T02:57:14.018Z,3.80
2018-09-14T02:59:42.115Z,5.17
2018-09-14T03:02:10.338Z,6.30
2018-09-14T03:04:38.417Z,4.47
2018-09-14T03:07:06.712Z,5.77
2018-09-14T03:09:34.804Z,5.10
2018-09-14T03:12:02.804Z,3.73
2018-09-14T03:14:30.829Z,3.23
2018-09-14T03:16:58.827Z,5.33
2018-09-14T03:19:26.891Z,3.43
2018-09-14T03:21:54.926Z,7.07
2018-09-14T03:24:23.191Z,6.10
2018-09-14T03:26:51.311Z,9.67
2018-09-14T03:29:19.486Z,6.57
2018-09-14T03:31:47.481Z,5.13
2018-09-14T03:34:15.517Z,7.50
2018-09-14T03:36:43.570Z,8.47
2018-09-14T03:39:11.625Z,5.63
2018-09-14T03:41:39.623Z,10.13
2018-09-14T03:44:07.754Z,9.10
2018-09-14T03:46:35.854Z,6.90
2018-09-14T03:49:04.149Z,4.93
2018-09-14T03:51:32.147Z,11.87
2018-09-14T03:54:00.138Z,4.33
2018-09-14T03:56:28.239Z,4.07
2018-09-14T03:58:56.230Z,5.70
2018-09-14T04:01:24.653Z,6.87
2018-09-14T04:03:53.046Z,7.40
2018-09-14T04:06:21.041Z,12.13
2018-09-14T04:08:49.041Z,4.60
2018-09-14T04:11:17.088Z,6.70
2018-09-14T04:13:45.112Z,6.73
2018-09-14T04:16:13.530Z,5.83
2018-09-14T04:18:41.610Z,7.63
2018-09-14T04:21:09.603Z,6.43
2018-09-14T04:23:37.747Z,6.30
2018-09-14T04:26:05.725Z,6.57
2018-09-14T04:28:33.731Z,7.33
2018-09-14T04:31:01.762Z,5.40
2018-09-14T04:33:29.761Z,5.77
2018-09-14T04:35:57.899Z,9.20
2018-09-14T04:38:26.051Z,6.40
2018-09-14T04:40:54.027Z,5.00
2018-09-14T04:43:22.081Z,8.60
2018-09-14T04:45:50.183Z,5.10
2018-09-14T04:48:18.655Z,6.23
2018-09-14T04:50:46.578Z,9.40
2018-09-14T04:53:14.677Z,7.97
2018-09-14T04:55:42.765Z,6.83
2018-09-14T04:58:10.769Z,6.60
2018-09-14T05:00:39.175Z,9.70
2018-09-14T05:03:07.223Z,5.63
2018-09-14T05:05:35.227Z,7.23
2018-09-14T05:08:03.352Z,13.43
2018-09-14T05:10:31.453Z,6.57
2018-09-14T05:12:59.574Z,6.27
2018-09-14T05:15:27.574Z,9.70
2018-09-14T05:17:55.641Z,8.00
2018-09-14T05:20:24.054Z,8.17
2018-09-14T05:22:52.055Z,6.57
2018-09-14T05:25:20.089Z,10.23
2018-09-14T05:27:48.235Z,9.20
2018-09-14T05:30:16.261Z,11.70
2018-09-14T05:32:44.245Z,14.13
2018-09-14T05:35:12.321Z,7.27
2018-09-14T05:37:40.313Z,9.17
2018-09-14T05:40:08.622Z,9.53
2018-09-14T05:42:36.665Z,12.30
2018-09-14T05:45:04.669Z,12.27
2018-09-14T05:47:32.715Z,8.63
2018-09-14T05:50:00.709Z,11.40
2018-09-14T05:52:28.930Z,12.87
2018-09-14T05:54:57.002Z,9.47
2018-09-14T05:57:24.989Z,9.67
2018-09-14T05:59:53.014Z,9.63
2018-09-14T06:02:21.010Z,10.00
2018-09-14T06:04:49.378Z,12.00
2018-09-14T06:07:17.475Z,8.40
2018-09-14T06:09:45.580Z,9.40
2018-09-14T06:12:13.977Z,7.67
2018-09-14T06:14:41.965Z,6.80
2018-09-14T06:17:10.147Z,10.00
2018-09-14T06:19:38.110Z,8.77
2018-09-14T06:22:06.270Z,9.43
2018-09-14T06:24:34.313Z,6.87
2018-09-14T06:27:02.337Z,9.03
2018-09-14T06:29:30.338Z,11.57
2018-09-14T06:31:58.553Z,8.60
2018-09-14T06:34:26.545Z,11.17
2018-09-14T06:36:54.647Z,6.90
2018-09-14T06:39:22.734Z,7.43
2018-09-14T06:41:50.763Z,6.23
2018-09-14T06:44:18.825Z,6.97
2018-09-14T06:46:46.930Z,6.47
2018-09-14T06:49:14.917Z,5.77
2018-09-14T06:51:43.021Z,6.87
2018-09-14T06:54:11.101Z,6.90
2018-09-14T06:56:39.089Z,6.80
2018-09-14T06:59:07.198Z,6.80
2018-09-14T07:01:35.226Z,6.83
2018-09-14T07:04:03.225Z,5.60
2018-09-14T07:06:31.368Z,6.63
2018-09-14T07:08:59.345Z,7.97
2018-09-14T07:11:27.452Z,4.80
2018-09-14T07:13:55.510Z,8.07
2018-09-14T07:16:23.569Z,6.97
2018-09-14T07:18:51.597Z,4.30
2018-09-14T07:21:19.588Z,3.97
2018-09-14T07:23:47.659Z,4.10
2018-09-14T07:26:15.740Z,5.73
2018-09-14T07:28:43.780Z,4.53
2018-09-14T07:31:11.850Z,4.53
2018-09-14T07:33:39.946Z,5.67
2018-09-14T07:36:08.143Z,3.40
2018-09-14T07:38:36.128Z,3.70
2018-09-14T07:41:04.126Z,4.20
2018-09-14T07:43:32.151Z,2.20
2018-09-14T07:46:00.225Z,11.30
2018-09-14T07:48:28.403Z,2.80
2018-09-14T07:50:56.427Z,2.60
2018-09-14T07:53:24.449Z,2.93
2018-09-14T07:55:52.469Z,2.03
2018-09-14T07:58:20.486Z,2.90
2018-09-14T08:00:48.698Z,2.00
2018-09-14T08:03:17.001Z,7.53
2018-09-14T08:05:44.996Z,5.63
2018-09-14T08:08:13.017Z,9.13
2018-09-14T08:10:41.298Z,3.50
2018-09-14T08:13:09.301Z,3.50
2018-09-14T08:15:37.391Z,4.60
2018-09-14T08:18:05.837Z,2.93
2018-09-14T08:20:33.991Z,2.37
2018-09-14T08:23:02.410Z,2.97
2018-09-14T08:25:30.389Z,3.17
2018-09-14T08:27:58.386Z,3.20
2018-09-14T08:30:26.417Z,3.13
2018-09-14T08:32:54.413Z,4.90
2018-09-14T08:35:22.400Z,1.53
2018-09-14T08:37:50.565Z,2.63
2018-09-14T08:40:18.741Z,2.10
2018-09-14T08:42:46.864Z,1.80
2018-09-14T08:45:14.916Z,4.40
2018-09-14T08:47:42.945Z,3.23
2018-09-14T08:50:11.049Z,2.93
2018-09-14T08:52:39.034Z,2.20
2018-09-14T08:55:07.485Z,2.00
2018-09-14T08:57:35.497Z,5.60
2018-09-14T09:00:03.649Z,2.13
2018-09-14T09:02:31.735Z,1.73
2018-09-14T09:04:59.799Z,1.70
2018-09-14T09:07:27.941Z,3.77
2018-09-14T09:12:16.749Z,4.17
2018-09-14T09:14:44.777Z,1.80
2018-09-14T09:17:12.840Z,3.17
2018-09-14T09:19:40.845Z,2.13
2018-09-14T09:22:08.937Z,3.63
2018-09-14T09:24:36.925Z,3.40
2018-09-14T09:27:05.066Z,1.93
2018-09-14T09:29:33.200Z,2.93
2018-09-14T09:32:01.230Z,3.80
2018-09-14T09:34:29.213Z,2.30
2018-09-14T09:36:57.308Z,1.77
2018-09-14T09:39:25.616Z,1.70
2018-09-14T09:41:53.718Z,1.50
2018-09-14T09:44:21.730Z,2.83
2018-09-14T09:46:49.801Z,1.30
2018-09-14T09:49:18.102Z,4.40
2018-09-14T09:51:46.123Z,1.60
2018-09-14T09:54:14.094Z,3.43
2018-09-14T09:56:42.490Z,5.23
2018-09-14T09:59:10.466Z,1.90
2018-09-14T10:01:44.005Z,1.53
2018-09-14T10:04:17.577Z,1.53
2018-09-14T10:06:45.866Z,1.40
2018-09-14T10:09:13.895Z,2.13
2018-09-14T10:11:41.905Z,1.67
2018-09-14T10:14:09.988Z,2.10
2018-09-14T10:16:38.026Z,1.83
2018-09-14T10:19:06.148Z,1.57
2018-09-14T10:21:34.155Z,1.43
2018-09-14T10:24:02.322Z,2.47
2018-09-14T10:26:30.419Z,1.53
2018-09-14T10:28:58.550Z,1.07
2018-09-14T10:31:26.553Z,1.90
2018-09-14T10:33:54.577Z,1.10
2018-09-14T10:36:22.558Z,0.83
2018-09-14T10:38:50.894Z,0.70
2018-09-14T10:41:18.912Z,0.70
2018-09-14T10:43:46.989Z,4.07
2018-09-14T10:46:15.121Z,1.50
2018-09-14T10:48:43.233Z,1.30
2018-09-14T10:51:11.380Z,0.90
2018-09-14T10:53:39.410Z,0.90
2018-09-14T10:56:07.476Z,0.70
2018-09-14T10:58:44.208Z,2.70
2018-09-14T11:01:14.002Z,2.40
2018-09-14T11:03:42.518Z,1.00
2018-09-14T11:06:10.922Z,3.43
2018-09-14T11:08:39.018Z,1.73
2018-09-14T11:11:07.245Z,1.07
2018-09-14T11:13:35.316Z,2.10
2018-09-14T11:16:03.367Z,1.80
2018-09-14T11:18:31.398Z,4.40
2018-09-14T11:20:59.409Z,2.97
2018-09-14T11:23:27.502Z,0.87
2018-09-14T11:25:55.593Z,1.53
2018-09-14T11:28:23.622Z,1.60
2018-09-14T11:30:51.692Z,3.00
2018-09-14T11:33:19.681Z,1.13
2018-09-14T11:35:47.773Z,1.80
2018-09-14T11:38:15.945Z,1.13
2018-09-14T11:40:43.871Z,2.33
2018-09-14T11:43:12.066Z,0.90
2018-09-14T11:45:40.465Z,0.90
2018-09-14T11:48:08.572Z,0.73
2018-09-14T11:50:36.665Z,2.57
2018-09-14T11:53:04.760Z,1.17
2018-09-14T11:55:33.062Z,2.10
2018-09-14T11:58:01.258Z,1.00
2018-09-14T12:00:29.623Z,1.30
2018-09-14T12:02:57.618Z,2.87
2018-09-14T12:05:25.753Z,1.10
2018-09-14T12:07:53.954Z,2.73
2018-09-14T12:10:22.582Z,2.83
2018-09-14T12:12:50.727Z,1.87
2018-09-14T12:15:18.816Z,2.30
2018-09-14T12:17:47.006Z,1.63
2018-09-14T12:20:14.992Z,3.53
2018-09-14T12:22:43.054Z,1.67
2018-09-14T12:25:11.076Z,2.93
2018-09-14T12:27:39.134Z,1.60
2018-09-14T12:30:07.181Z,0.63
2018-09-14T12:32:35.200Z,2.20
2018-09-14T12:35:03.331Z,0.80
2018-09-14T12:37:31.325Z,0.80
2018-09-14T12:39:59.434Z,0.97
2018-09-14T12:42:29.830Z,2.10
2018-09-14T12:44:58.031Z,3.40
2018-09-14T12:47:26.060Z,0.80
2018-09-14T12:49:54.267Z,5.33
2018-09-14T12:52:22.254Z,2.60
2018-09-14T12:54:51.334Z,2.50
2018-09-14T12:57:19.369Z,2.10
2018-09-14T12:59:47.358Z,2.50
2018-09-14T13:02:15.385Z,1.23
2018-09-14T13:04:43.570Z,1.57
2018-09-14T13:07:11.667Z,2.10
2018-09-14T13:09:39.763Z,2.07
2018-09-14T13:12:07.790Z,1.73
2018-09-14T13:14:35.978Z,1.00
2018-09-14T13:17:04.258Z,1.40
2018-09-14T13:19:32.250Z,1.93
2018-09-14T13:22:00.334Z,2.07
2018-09-14T13:24:28.504Z,3.47
2018-09-14T13:26:56.554Z,3.17
2018-09-14T13:29:31.510Z,1.40
2018-09-14T13:31:59.497Z,2.60
2018-09-14T13:34:27.493Z,1.93
2018-09-14T13:36:55.584Z,3.33
2018-09-14T13:39:23.590Z,7.37
2018-09-14T13:41:51.818Z,0.80
2018-09-14T13:44:19.826Z,2.07
2018-09-14T13:46:47.966Z,1.23
2018-09-14T13:49:15.968Z,3.00
2018-09-14T13:51:44.067Z,2.50
2018-09-14T13:54:12.095Z,2.23
2018-09-14T13:56:40.114Z,2.87
2018-09-14T13:59:08.243Z,2.50
2018-09-14T14:01:36.359Z,3.37
2018-09-14T14:04:04.760Z,5.13
2018-09-14T14:06:32.813Z,2.33
2018-09-14T14:09:01.027Z,3.97
2018-09-14T14:11:29.065Z,5.10
2018-09-14T14:13:57.053Z,1.00
2018-09-14T14:16:25.046Z,2.80
2018-09-14T14:18:53.062Z,1.37
2018-09-14T14:21:21.082Z,1.10
2018-09-14T14:23:49.526Z,1.40
2018-09-14T14:26:17.635Z,5.40
2018-09-14T14:28:45.729Z,1.00
2018-09-14T14:31:13.809Z,2.30
2018-09-14T14:33:41.878Z,1.77
2018-09-14T14:36:10.114Z,1.30
2018-09-14T14:38:38.209Z,2.07
2018-09-14T14:41:06.333Z,1.07
2018-09-14T14:43:34.704Z,1.80
2018-09-14T14:46:02.783Z,2.33
2018-09-14T14:48:30.910Z,1.97
2018-09-14T14:50:58.900Z,1.23
2018-09-14T14:53:27.194Z,3.77
2018-09-14T14:55:55.265Z,1.30
2018-09-14T14:58:23.184Z,2.03
2018-09-14T15:00:51.273Z,3.00
2018-09-14T15:03:19.266Z,1.50
2018-09-14T15:05:47.536Z,2.40
2018-09-14T15:08:15.573Z,1.60
2018-09-14T15:10:43.624Z,2.10
2018-09-14T15:13:11.607Z,2.00
2018-09-14T15:15:39.973Z,1.97
2018-09-14T15:18:07.982Z,3.27
2018-09-14T15:20:36.016Z,4.63
2018-09-14T15:23:04.258Z,9.30
2018-09-14T15:25:32.319Z,3.50
2018-09-14T15:28:00.430Z,2.40
2018-09-14T15:30:28.865Z,3.33
2018-09-14T15:32:58.891Z,10.00
2018-09-14T15:35:26.966Z,5.30
2018-09-14T15:37:55.169Z,5.40
2018-09-14T15:40:23.702Z,3.90
2018-09-14T15:42:51.807Z,4.97
2018-09-14T15:45:19.892Z,2.23
2018-09-14T15:47:47.925Z,1.77
2018-09-14T15:50:15.945Z,1.20
2018-09-14T15:52:48.287Z,1.93
2018-09-14T15:55:20.648Z,2.87
2018-09-14T15:57:50.425Z,1.37
2018-09-14T16:00:22.184Z,1.40
2018-09-14T16:02:56.139Z,2.30
2018-09-14T16:05:28.405Z,2.50
2018-09-14T16:07:57.876Z,1.67
2018-09-14T16:10:29.165Z,1.07
2018-09-14T16:12:57.727Z,1.30
2018-09-14T16:15:28.421Z,2.70
2018-09-14T16:17:57.637Z,1.87
2018-09-14T16:20:27.018Z,4.40
2018-09-14T16:22:58.710Z,2.00
2018-09-14T16:25:28.914Z,6.20
2018-09-14T16:27:59.352Z,3.43
2018-09-14T16:30:29.836Z,9.30
2018-09-14T16:32:59.776Z,5.67
2018-09-14T16:35:29.341Z,3.63
2018-09-14T16:37:57.658Z,2.60
2018-09-14T16:40:27.024Z,1.87
2018-09-14T16:42:57.542Z,1.20
2018-09-14T16:45:27.644Z,1.67
2018-09-14T16:47:58.624Z,1.20
2018-09-14T16:50:28.205Z,2.40
2018-09-14T16:52:57.342Z,1.43
2018-09-14T16:55:26.003Z,1.53
2018-09-14T16:57:54.294Z,1.77
2018-09-14T17:00:22.580Z,1.10
2018-09-14T17:02:50.714Z,1.83
2018-09-14T17:05:18.954Z,2.07
2018-09-14T17:07:47.221Z,2.70
2018-09-14T17:10:16.170Z,7.87
2018-09-14T17:12:44.762Z,3.90
2018-09-14T17:15:13.178Z,2.27
2018-09-14T17:17:41.299Z,2.73
2018-09-14T17:20:09.446Z,2.03
2018-09-14T17:22:37.641Z,2.27
2018-09-14T17:25:05.636Z,3.53
2018-09-14T17:27:33.702Z,1.50
2018-09-14T17:30:01.731Z,3.47
2018-09-14T17:32:29.730Z,3.30
2018-09-14T17:34:57.813Z,5.07
2018-09-14T17:37:25.814Z,2.97
2018-09-14T17:39:53.905Z,4.97
2018-09-14T17:42:22.035Z,7.40
2018-09-14T17:44:50.062Z,3.13
2018-09-14T17:47:18.107Z,3.57
2018-09-14T17:49:46.305Z,2.90
2018-09-14T17:52:14.606Z,3.10
2018-09-14T17:54:42.664Z,3.40
2018-09-14T17:57:10.648Z,3.27
2018-09-14T17:59:38.719Z,3.50
2018-09-14T18:02:06.901Z,3.40
2018-09-14T18:04:34.941Z,3.90
2018-09-14T18:07:02.996Z,4.40
2018-09-14T18:09:31.366Z,4.13
2018-09-14T18:11:59.432Z,5.77
2018-09-14T18:14:27.579Z,8.97
2018-09-14T18:16:55.669Z,11.90
2018-09-14T18:19:23.773Z,8.40
2018-09-14T18:21:51.962Z,7.13
2018-09-14T18:24:20.262Z,5.77
2018-09-14T18:26:48.290Z,4.60
2018-09-14T18:29:16.350Z,5.53
2018-09-14T18:31:44.457Z,4.43
2018-09-14T18:34:12.562Z,5.43
2018-09-14T18:36:40.758Z,5.03
2018-09-14T18:39:10.115Z,4.30
2018-09-14T18:41:38.410Z,7.07
2018-09-14T18:44:06.579Z,5.03
2018-09-14T18:46:34.706Z,5.50
2018-09-14T18:49:02.773Z,5.70
2018-09-14T18:51:30.923Z,9.63
2018-09-14T18:53:59.209Z,5.03
2018-09-14T18:56:27.362Z,7.10
2018-09-14T18:58:55.361Z,10.80
2018-09-14T19:01:23.390Z,6.60
2018-09-14T19:03:51.462Z,6.70
2018-09-14T19:06:19.553Z,7.00
2018-09-14T19:08:47.833Z,6.77
2018-09-14T19:11:15.915Z,8.47
2018-09-14T19:13:44.006Z,8.00
2018-09-14T19:16:12.137Z,8.33
2018-09-14T19:18:40.233Z,6.30
2018-09-14T19:21:08.354Z,7.20
2018-09-14T19:23:36.581Z,6.37
2018-09-14T19:26:04.605Z,9.30
2018-09-14T19:28:32.864Z,11.87
2018-09-14T19:31:00.926Z,9.10
2018-09-14T19:33:28.970Z,7.20
2018-09-14T19:35:58.074Z,8.43
2018-09-14T19:38:26.250Z,5.80
2018-09-14T19:40:54.241Z,6.50
2018-09-14T19:43:22.252Z,8.00
2018-09-14T19:45:50.385Z,10.13
2018-09-14T19:48:18.392Z,6.60
2018-09-14T19:50:47.370Z,6.73
2018-09-14T19:53:15.451Z,11.57
2018-09-14T19:55:43.505Z,9.27
2018-09-14T19:58:11.838Z,7.73
2018-09-14T20:00:39.896Z,7.63
2018-09-14T20:03:08.029Z,9.07
2018-09-14T20:05:42.872Z,6.87
2018-09-14T20:08:11.014Z,8.77
2018-09-14T20:10:39.002Z,8.20
2018-09-14T20:13:06.997Z,8.57
2018-09-14T20:15:35.305Z,9.47
2018-09-14T20:18:03.337Z,9.20
2018-09-14T20:20:31.350Z,8.53
2018-09-14T20:22:59.475Z,8.03
2018-09-14T20:25:27.574Z,10.87
2018-09-14T20:27:55.634Z,12.10
2018-09-14T20:30:23.773Z,8.63
2018-09-14T20:32:51.882Z,8.67
2018-09-14T20:35:19.902Z,9.27
2018-09-14T20:37:47.942Z,9.70
2018-09-14T20:40:15.950Z,8.20
2018-09-14T20:42:44.138Z,13.60
2018-09-14T20:45:12.234Z,11.17
2018-09-14T20:47:40.247Z,8.40
2018-09-14T20:50:08.529Z,11.40
2018-09-14T20:52:36.630Z,10.83
2018-09-14T20:55:04.669Z,13.13
2018-09-14T20:57:32.826Z,10.90
2018-09-14T21:00:00.944Z,8.17
2018-09-14T21:02:29.021Z,10.70
2018-09-14T21:04:57.070Z,7.90
2018-09-14T21:07:25.413Z,10.33
2018-09-14T21:09:53.706Z,8.53
2018-09-14T21:12:21.781Z,9.20
2018-09-14T21:14:49.842Z,10.07
2018-09-14T21:17:17.824Z,15.77
2018-09-14T21:19:45.838Z,9.07
2018-09-14T21:22:13.898Z,10.60
2018-09-14T21:24:41.886Z,7.80
2018-09-14T21:27:09.994Z,7.90
2018-09-14T21:29:38.099Z,8.80
2018-09-14T21:32:06.192Z,15.63
2018-09-14T21:34:34.256Z,8.63
2018-09-14T21:37:02.406Z,9.10
2018-09-14T21:39:30.410Z,9.37
2018-09-14T21:41:58.422Z,10.70
2018-09-14T21:44:26.453Z,8.00
2018-09-14T21:46:54.758Z,8.50
2018-09-14T21:49:22.853Z,8.80
2018-09-14T21:51:50.854Z,11.27
2018-09-14T21:54:18.875Z,9.80
2018-09-14T21:56:46.938Z,11.10
2018-09-14T21:59:14.933Z,9.90
2018-09-14T22:01:43.030Z,9.67
2018-09-14T22:04:11.070Z,11.43
2018-09-14T22:06:39.066Z,10.33
2018-09-14T22:09:08.722Z,10.57
2018-09-14T22:11:36.914Z,8.13
2018-09-14T22:14:05.074Z,8.93
2018-09-14T22:16:33.053Z,12.67
2018-09-14T22:19:01.057Z,11.70
2018-09-14T22:21:29.254Z,10.27
2018-09-14T22:23:57.442Z,9.00
2018-09-14T22:26:25.437Z,11.40
2018-09-14T22:28:53.763Z,7.07
2018-09-14T22:31:21.759Z,8.93
2018-09-14T22:33:49.758Z,11.57
2018-09-14T22:36:17.817Z,7.83
2018-09-14T22:38:45.823Z,10.90
2018-09-14T22:41:13.928Z,11.30
2018-09-14T22:43:41.962Z,9.30
2018-09-14T22:46:10.025Z,13.27
2018-09-14T22:48:38.313Z,9.87
2018-09-14T22:51:06.313Z,11.80
2018-09-14T22:53:34.311Z,12.00
2018-09-14T22:56:02.356Z,10.83
2018-09-14T22:58:30.357Z,12.17
2018-09-14T23:01:04.230Z,13.23
2018-09-14T23:03:32.229Z,12.07
2018-09-14T23:06:00.325Z,15.53
2018-09-14T23:08:28.516Z,13.67
2018-09-14T23:10:56.500Z,9.37
2018-09-14T23:13:24.494Z,14.83
2018-09-14T23:15:57.912Z,15.03
2018-09-14T23:18:26.125Z,15.70
2018-09-14T23:20:54.148Z,13.63
2018-09-14T23:23:22.629Z,12.70
2018-09-14T23:25:51.432Z,12.73
2018-09-14T23:28:19.836Z,11.33
2018-09-14T23:30:47.890Z,12.83
2018-09-14T23:33:16.139Z,14.30
2018-09-14T23:35:44.249Z,12.13
2018-09-14T23:38:12.465Z,16.80
2018-09-14T23:40:40.530Z,13.57
2018-09-14T23:43:08.877Z,13.33
2018-09-14T23:45:36.929Z,14.90
2018-09-14T23:48:04.965Z,13.47
2018-09-14T23:50:33.040Z,11.07
2018-09-14T23:53:01.106Z,13.30
2018-09-14T23:55:29.138Z,14.60
2018-09-14T23:57:57.176Z,12.93
